sensor_id;sensor_type;location;lat;lon;timestamp;P1;durP1;ratioP1;P2;durP2;ratioP2
41755;SDS011;27435;48.480;9.258;2023-11-18T00:00:22;2.03;;;1.00;;
41755;SDS011;27435;48.480;9.258;2023-11-18T00:02:49;1.80;;;0.83;;
41755;SDS011;27435;48.480;9.258;2023-11-18T00:05:15;1.80;;;0.90;;
41755;SDS011;27435;48.480;9.258;2023-11-18T00:07:41;2.23;;;1.10;;
41755;SDS011;27435;48.480;9.258;2023-11-18T00:10:07;1.77;;;0.80;;
41755;SDS011;27435;48.480;9.258;2023-11-18T00:12:33;2.57;;;1.23;;
41755;SDS011;27435;48.480;9.258;2023-11-18T00:15:03;1.93;;;0.80;;
41755;SDS011;27435;48.480;9.258;2023-11-18T00:17:30;1.20;;;0.70;;
41755;SDS011;27435;48.480;9.258;2023-11-18T00:19:56;1.27;;;0.60;;
41755;SDS011;27435;48.480;9.258;2023-11-18T00:22:21;1.93;;;0.80;;
41755;SDS011;27435;48.480;9.258;2023-11-18T00:24:47;3.30;;;1.30;;
41755;SDS011;27435;48.480;9.258;2023-11-18T00:27:13;1.27;;;0.60;;
41755;SDS011;27435;48.480;9.258;2023-11-18T00:29:40;3.20;;;0.80;;
41755;SDS011;27435;48.480;9.258;2023-11-18T00:32:06;1.17;;;0.77;;
41755;SDS011;27435;48.480;9.258;2023-11-18T00:34:35;1.97;;;0.70;;
41755;SDS011;27435;48.480;9.258;2023-11-18T00:37:01;1.37;;;0.60;;
41755;SDS011;27435;48.480;9.258;2023-11-18T00:39:26;1.80;;;0.70;;
41755;SDS011;27435;48.480;9.258;2023-11-18T00:41:52;1.67;;;0.70;;
41755;SDS011;27435;48.480;9.258;2023-11-18T00:44:19;2.67;;;0.60;;
41755;SDS011;27435;48.480;9.258;2023-11-18T00:46:44;1.60;;;0.97;;
41755;SDS011;27435;48.480;9.258;2023-11-18T00:49:10;1.90;;;0.90;;
41755;SDS011;27435;48.480;9.258;2023-11-18T00:51:36;0.93;;;0.60;;
41755;SDS011;27435;48.480;9.258;2023-11-18T00:54:03;2.60;;;0.60;;
41755;SDS011;27435;48.480;9.258;2023-11-18T00:56:31;1.20;;;0.60;;
41755;SDS011;27435;48.480;9.258;2023-11-18T00:58:57;1.27;;;0.77;;
41755;SDS011;27435;48.480;9.258;2023-11-18T01:01:22;0.87;;;0.53;;
41755;SDS011;27435;48.480;9.258;2023-11-18T01:03:48;1.50;;;0.63;;
41755;SDS011;27435;48.480;9.258;2023-11-18T01:06:14;1.20;;;0.70;;
41755;SDS011;27435;48.480;9.258;2023-11-18T01:08:45;1.17;;;0.63;;
41755;SDS011;27435;48.480;9.258;2023-11-18T01:11:17;1.10;;;0.60;;
41755;SDS011;27435;48.480;9.258;2023-11-18T01:13:47;1.20;;;0.70;;
41755;SDS011;27435;48.480;9.258;2023-11-18T01:16:14;3.03;;;1.07;;
41755;SDS011;27435;48.480;9.258;2023-11-18T01:18:40;1.50;;;0.67;;
41755;SDS011;27435;48.480;9.258;2023-11-18T01:21:06;2.03;;;0.77;;
41755;SDS011;27435;48.480;9.258;2023-11-18T01:23:34;1.37;;;0.70;;
41755;SDS011;27435;48.480;9.258;2023-11-18T01:26:07;1.40;;;0.60;;
41755;SDS011;27435;48.480;9.258;2023-11-18T01:28:36;1.30;;;0.63;;
41755;SDS011;27435;48.480;9.258;2023-11-18T01:31:06;1.87;;;0.73;;
41755;SDS011;27435;48.480;9.258;2023-11-18T01:33:35;1.30;;;0.70;;
41755;SDS011;27435;48.480;9.258;2023-11-18T01:36:06;1.80;;;0.90;;
41755;SDS011;27435;48.480;9.258;2023-11-18T01:38:36;1.63;;;0.80;;
41755;SDS011;27435;48.480;9.258;2023-11-18T01:41:05;1.70;;;0.70;;
41755;SDS011;27435;48.480;9.258;2023-11-18T01:43:32;1.83;;;0.80;;
41755;SDS011;27435;48.480;9.258;2023-11-18T01:45:59;1.73;;;0.80;;
41755;SDS011;27435;48.480;9.258;2023-11-18T01:48:28;1.60;;;0.90;;
41755;SDS011;27435;48.480;9.258;2023-11-18T01:50:55;1.77;;;0.97;;
41755;SDS011;27435;48.480;9.258;2023-11-18T01:53:23;2.67;;;0.60;;
41755;SDS011;27435;48.480;9.258;2023-11-18T01:55:49;1.67;;;0.80;;
41755;SDS011;27435;48.480;9.258;2023-11-18T01:58:15;1.63;;;0.80;;
41755;SDS011;27435;48.480;9.258;2023-11-18T02:00:45;1.67;;;0.80;;
41755;SDS011;27435;48.480;9.258;2023-11-18T02:03:11;1.70;;;1.00;;
41755;SDS011;27435;48.480;9.258;2023-11-18T02:05:37;1.70;;;0.70;;
41755;SDS011;27435;48.480;9.258;2023-11-18T02:08:03;1.70;;;0.80;;
41755;SDS011;27435;48.480;9.258;2023-11-18T02:10:33;2.07;;;0.97;;
41755;SDS011;27435;48.480;9.258;2023-11-18T02:13:21;1.50;;;0.70;;
41755;SDS011;27435;48.480;9.258;2023-11-18T02:15:51;2.70;;;1.00;;
41755;SDS011;27435;48.480;9.258;2023-11-18T02:18:19;2.13;;;0.80;;
41755;SDS011;27435;48.480;9.258;2023-11-18T02:20:46;1.57;;;0.67;;
41755;SDS011;27435;48.480;9.258;2023-11-18T02:23:13;1.20;;;0.60;;
41755;SDS011;27435;48.480;9.258;2023-11-18T02:25:46;2.77;;;0.60;;
41755;SDS011;27435;48.480;9.258;2023-11-18T02:28:12;1.80;;;0.87;;
41755;SDS011;27435;48.480;9.258;2023-11-18T02:30:38;1.03;;;0.70;;
41755;SDS011;27435;48.480;9.258;2023-11-18T02:35:53;3.10;;;0.60;;
41755;SDS011;27435;48.480;9.258;2023-11-18T02:38:30;1.97;;;0.87;;
41755;SDS011;27435;48.480;9.258;2023-11-18T02:41:02;2.97;;;1.03;;
41755;SDS011;27435;48.480;9.258;2023-11-18T02:43:35;3.57;;;0.90;;
41755;SDS011;27435;48.480;9.258;2023-11-18T02:46:03;1.80;;;0.80;;
41755;SDS011;27435;48.480;9.258;2023-11-18T02:48:30;1.87;;;0.90;;
41755;SDS011;27435;48.480;9.258;2023-11-18T02:50:57;0.93;;;0.60;;
41755;SDS011;27435;48.480;9.258;2023-11-18T02:53:24;2.10;;;0.80;;
41755;SDS011;27435;48.480;9.258;2023-11-18T02:55:50;2.53;;;0.83;;
41755;SDS011;27435;48.480;9.258;2023-11-18T02:58:17;2.20;;;1.00;;
41755;SDS011;27435;48.480;9.258;2023-11-18T03:00:43;2.03;;;1.00;;
41755;SDS011;27435;48.480;9.258;2023-11-18T03:03:09;3.80;;;1.00;;
41755;SDS011;27435;48.480;9.258;2023-11-18T03:05:36;2.80;;;1.00;;
41755;SDS011;27435;48.480;9.258;2023-11-18T03:08:02;2.77;;;0.93;;
41755;SDS011;27435;48.480;9.258;2023-11-18T03:10:31;1.90;;;1.20;;
41755;SDS011;27435;48.480;9.258;2023-11-18T03:13:00;2.37;;;1.20;;
41755;SDS011;27435;48.480;9.258;2023-11-18T03:15:25;1.80;;;1.00;;
41755;SDS011;27435;48.480;9.258;2023-11-18T03:17:52;2.10;;;1.37;;
41755;SDS011;27435;48.480;9.258;2023-11-18T03:20:18;1.60;;;1.00;;
41755;SDS011;27435;48.480;9.258;2023-11-18T03:22:47;2.03;;;0.97;;
41755;SDS011;27435;48.480;9.258;2023-11-18T03:25:15;1.97;;;0.90;;
41755;SDS011;27435;48.480;9.258;2023-11-18T03:27:41;1.97;;;0.90;;
41755;SDS011;27435;48.480;9.258;2023-11-18T03:30:07;1.47;;;0.80;;
41755;SDS011;27435;48.480;9.258;2023-11-18T03:32:35;1.33;;;0.87;;
41755;SDS011;27435;48.480;9.258;2023-11-18T03:35:04;1.77;;;1.10;;
41755;SDS011;27435;48.480;9.258;2023-11-18T03:37:37;2.00;;;1.23;;
41755;SDS011;27435;48.480;9.258;2023-11-18T03:40:12;3.13;;;1.30;;
41755;SDS011;27435;48.480;9.258;2023-11-18T03:42:39;1.80;;;1.00;;
41755;SDS011;27435;48.480;9.258;2023-11-18T03:45:06;2.17;;;1.20;;
41755;SDS011;27435;48.480;9.258;2023-11-18T03:47:34;2.77;;;1.43;;
41755;SDS011;27435;48.480;9.258;2023-11-18T03:50:00;2.87;;;1.60;;
41755;SDS011;27435;48.480;9.258;2023-11-18T03:52:26;2.77;;;1.70;;
41755;SDS011;27435;48.480;9.258;2023-11-18T03:54:52;3.30;;;1.53;;
41755;SDS011;27435;48.480;9.258;2023-11-18T03:57:20;5.00;;;2.30;;
41755;SDS011;27435;48.480;9.258;2023-11-18T03:59:46;5.60;;;2.00;;
41755;SDS011;27435;48.480;9.258;2023-11-18T04:02:11;3.10;;;1.63;;
41755;SDS011;27435;48.480;9.258;2023-11-18T04:04:37;4.67;;;1.70;;
41755;SDS011;27435;48.480;9.258;2023-11-18T04:07:03;2.97;;;1.60;;
41755;SDS011;27435;48.480;9.258;2023-11-18T04:09:29;5.77;;;2.13;;
41755;SDS011;27435;48.480;9.258;2023-11-18T04:11:55;3.50;;;1.83;;
41755;SDS011;27435;48.480;9.258;2023-11-18T04:14:21;2.53;;;1.73;;
41755;SDS011;27435;48.480;9.258;2023-11-18T04:16:47;2.77;;;1.60;;
41755;SDS011;27435;48.480;9.258;2023-11-18T04:19:16;2.73;;;1.47;;
41755;SDS011;27435;48.480;9.258;2023-11-18T04:21:42;2.80;;;1.67;;
41755;SDS011;27435;48.480;9.258;2023-11-18T04:24:12;2.53;;;1.30;;
41755;SDS011;27435;48.480;9.258;2023-11-18T04:26:38;2.00;;;1.17;;
41755;SDS011;27435;48.480;9.258;2023-11-18T04:29:03;2.37;;;1.27;;
41755;SDS011;27435;48.480;9.258;2023-11-18T04:31:29;2.37;;;1.20;;
41755;SDS011;27435;48.480;9.258;2023-11-18T04:33:55;5.17;;;1.10;;
41755;SDS011;27435;48.480;9.258;2023-11-18T04:36:21;3.73;;;1.10;;
41755;SDS011;27435;48.480;9.258;2023-11-18T04:38:47;3.23;;;1.70;;
41755;SDS011;27435;48.480;9.258;2023-11-18T04:41:13;6.47;;;2.00;;
41755;SDS011;27435;48.480;9.258;2023-11-18T04:43:39;2.90;;;1.60;;
41755;SDS011;27435;48.480;9.258;2023-11-18T04:46:06;5.37;;;1.80;;
41755;SDS011;27435;48.480;9.258;2023-11-18T04:48:32;3.07;;;1.90;;
41755;SDS011;27435;48.480;9.258;2023-11-18T04:50:59;2.80;;;1.60;;
41755;SDS011;27435;48.480;9.258;2023-11-18T04:53:25;2.53;;;1.30;;
41755;SDS011;27435;48.480;9.258;2023-11-18T04:55:51;1.70;;;0.97;;
41755;SDS011;27435;48.480;9.258;2023-11-18T04:58:17;1.60;;;0.90;;
41755;SDS011;27435;48.480;9.258;2023-11-18T05:00:44;2.03;;;1.13;;
41755;SDS011;27435;48.480;9.258;2023-11-18T05:03:09;2.27;;;0.93;;
41755;SDS011;27435;48.480;9.258;2023-11-18T05:05:38;1.60;;;0.97;;
41755;SDS011;27435;48.480;9.258;2023-11-18T05:08:04;2.43;;;1.20;;
41755;SDS011;27435;48.480;9.258;2023-11-18T05:10:34;3.37;;;1.00;;
41755;SDS011;27435;48.480;9.258;2023-11-18T05:13:01;1.80;;;1.10;;
41755;SDS011;27435;48.480;9.258;2023-11-18T05:15:27;4.43;;;1.33;;
41755;SDS011;27435;48.480;9.258;2023-11-18T05:17:54;1.80;;;1.00;;
41755;SDS011;27435;48.480;9.258;2023-11-18T05:20:20;1.97;;;1.20;;
41755;SDS011;27435;48.480;9.258;2023-11-18T05:22:47;2.30;;;0.90;;
41755;SDS011;27435;48.480;9.258;2023-11-18T05:25:12;2.30;;;0.90;;
41755;SDS011;27435;48.480;9.258;2023-11-18T05:27:38;2.00;;;1.00;;
41755;SDS011;27435;48.480;9.258;2023-11-18T05:30:09;2.53;;;1.10;;
41755;SDS011;27435;48.480;9.258;2023-11-18T05:32:35;2.50;;;0.83;;
41755;SDS011;27435;48.480;9.258;2023-11-18T05:35:01;4.37;;;0.90;;
41755;SDS011;27435;48.480;9.258;2023-11-18T05:37:29;1.63;;;0.77;;
41755;SDS011;27435;48.480;9.258;2023-11-18T05:40:00;2.57;;;1.53;;
41755;SDS011;27435;48.480;9.258;2023-11-18T05:42:31;1.97;;;0.70;;
41755;SDS011;27435;48.480;9.258;2023-11-18T05:45:00;2.97;;;0.80;;
41755;SDS011;27435;48.480;9.258;2023-11-18T05:47:26;2.90;;;0.80;;
41755;SDS011;27435;48.480;9.258;2023-11-18T05:49:52;2.67;;;1.00;;
41755;SDS011;27435;48.480;9.258;2023-11-18T05:52:18;2.77;;;0.80;;
41755;SDS011;27435;48.480;9.258;2023-11-18T05:54:45;2.53;;;1.00;;
41755;SDS011;27435;48.480;9.258;2023-11-18T05:57:12;1.93;;;1.00;;
41755;SDS011;27435;48.480;9.258;2023-11-18T05:59:42;1.83;;;0.80;;
41755;SDS011;27435;48.480;9.258;2023-11-18T06:02:08;1.73;;;0.80;;
41755;SDS011;27435;48.480;9.258;2023-11-18T06:04:38;4.93;;;0.80;;
41755;SDS011;27435;48.480;9.258;2023-11-18T06:07:04;1.70;;;0.97;;
41755;SDS011;27435;48.480;9.258;2023-11-18T06:09:30;1.97;;;0.83;;
41755;SDS011;27435;48.480;9.258;2023-11-18T06:11:55;2.70;;;0.77;;
41755;SDS011;27435;48.480;9.258;2023-11-18T06:14:21;4.33;;;0.90;;
41755;SDS011;27435;48.480;9.258;2023-11-18T06:16:47;8.13;;;2.27;;
41755;SDS011;27435;48.480;9.258;2023-11-18T06:19:15;3.10;;;0.63;;
41755;SDS011;27435;48.480;9.258;2023-11-18T06:21:41;2.13;;;1.00;;
41755;SDS011;27435;48.480;9.258;2023-11-18T06:24:07;2.57;;;1.10;;
41755;SDS011;27435;48.480;9.258;2023-11-18T06:26:33;2.97;;;1.07;;
41755;SDS011;27435;48.480;9.258;2023-11-18T06:29:02;1.87;;;0.97;;
41755;SDS011;27435;48.480;9.258;2023-11-18T06:31:29;3.30;;;1.10;;
41755;SDS011;27435;48.480;9.258;2023-11-18T06:33:54;2.27;;;1.10;;
41755;SDS011;27435;48.480;9.258;2023-11-18T06:36:21;2.30;;;0.90;;
41755;SDS011;27435;48.480;9.258;2023-11-18T06:38:52;3.67;;;1.20;;
41755;SDS011;27435;48.480;9.258;2023-11-18T06:41:20;2.33;;;1.17;;
41755;SDS011;27435;48.480;9.258;2023-11-18T06:43:51;2.23;;;1.13;;
41755;SDS011;27435;48.480;9.258;2023-11-18T06:46:20;3.33;;;1.90;;
41755;SDS011;27435;48.480;9.258;2023-11-18T06:48:53;3.60;;;1.37;;
41755;SDS011;27435;48.480;9.258;2023-11-18T06:51:23;2.30;;;1.60;;
41755;SDS011;27435;48.480;9.258;2023-11-18T06:56:45;4.70;;;1.10;;
41755;SDS011;27435;48.480;9.258;2023-11-18T06:59:11;2.07;;;1.10;;
41755;SDS011;27435;48.480;9.258;2023-11-18T07:01:38;3.80;;;1.43;;
41755;SDS011;27435;48.480;9.258;2023-11-18T07:04:05;3.00;;;1.60;;
41755;SDS011;27435;48.480;9.258;2023-11-18T07:06:35;3.30;;;1.77;;
41755;SDS011;27435;48.480;9.258;2023-11-18T07:09:03;3.53;;;1.57;;
41755;SDS011;27435;48.480;9.258;2023-11-18T07:11:37;3.30;;;1.50;;
41755;SDS011;27435;48.480;9.258;2023-11-18T07:14:03;3.97;;;2.03;;
41755;SDS011;27435;48.480;9.258;2023-11-18T07:16:29;6.73;;;1.93;;
41755;SDS011;27435;48.480;9.258;2023-11-18T07:18:54;3.67;;;1.80;;
41755;SDS011;27435;48.480;9.258;2023-11-18T07:21:20;2.70;;;1.83;;
41755;SDS011;27435;48.480;9.258;2023-11-18T07:23:46;3.17;;;1.93;;
41755;SDS011;27435;48.480;9.258;2023-11-18T07:26:11;3.50;;;1.67;;
41755;SDS011;27435;48.480;9.258;2023-11-18T07:28:39;4.53;;;2.07;;
41755;SDS011;27435;48.480;9.258;2023-11-18T07:31:05;3.30;;;1.77;;
41755;SDS011;27435;48.480;9.258;2023-11-18T07:33:30;3.47;;;1.90;;
41755;SDS011;27435;48.480;9.258;2023-11-18T07:35:57;2.97;;;1.40;;
41755;SDS011;27435;48.480;9.258;2023-11-18T07:38:23;4.23;;;2.00;;
41755;SDS011;27435;48.480;9.258;2023-11-18T07:40:49;4.07;;;1.87;;
41755;SDS011;27435;48.480;9.258;2023-11-18T07:43:18;2.87;;;1.60;;
41755;SDS011;27435;48.480;9.258;2023-11-18T07:45:46;4.37;;;1.80;;
41755;SDS011;27435;48.480;9.258;2023-11-18T07:48:14;3.10;;;1.90;;
41755;SDS011;27435;48.480;9.258;2023-11-18T07:50:42;3.63;;;2.03;;
41755;SDS011;27435;48.480;9.258;2023-11-18T07:53:12;5.47;;;1.90;;
41755;SDS011;27435;48.480;9.258;2023-11-18T07:55:38;4.77;;;1.90;;
41755;SDS011;27435;48.480;9.258;2023-11-18T07:58:08;4.40;;;2.10;;
41755;SDS011;27435;48.480;9.258;2023-11-18T08:00:42;3.83;;;1.90;;
41755;SDS011;27435;48.480;9.258;2023-11-18T08:03:10;3.60;;;1.67;;
41755;SDS011;27435;48.480;9.258;2023-11-18T08:05:39;3.30;;;2.00;;
41755;SDS011;27435;48.480;9.258;2023-11-18T08:08:08;6.00;;;1.90;;
41755;SDS011;27435;48.480;9.258;2023-11-18T08:10:36;4.20;;;1.77;;
41755;SDS011;27435;48.480;9.258;2023-11-18T08:13:05;5.20;;;1.90;;
41755;SDS011;27435;48.480;9.258;2023-11-18T08:15:42;3.27;;;1.50;;
41755;SDS011;27435;48.480;9.258;2023-11-18T08:18:11;3.20;;;2.00;;
41755;SDS011;27435;48.480;9.258;2023-11-18T08:20:37;3.30;;;1.63;;
41755;SDS011;27435;48.480;9.258;2023-11-18T08:23:03;2.40;;;1.20;;
41755;SDS011;27435;48.480;9.258;2023-11-18T08:25:31;5.03;;;2.03;;
41755;SDS011;27435;48.480;9.258;2023-11-18T08:28:00;33.60;;;14.33;;
41755;SDS011;27435;48.480;9.258;2023-11-18T08:30:26;31.00;;;12.37;;
41755;SDS011;27435;48.480;9.258;2023-11-18T08:32:52;29.83;;;12.30;;
41755;SDS011;27435;48.480;9.258;2023-11-18T08:35:18;36.50;;;14.10;;
41755;SDS011;27435;48.480;9.258;2023-11-18T08:37:44;47.60;;;18.43;;
41755;SDS011;27435;48.480;9.258;2023-11-18T08:40:12;25.40;;;9.97;;
41755;SDS011;27435;48.480;9.258;2023-11-18T08:42:46;26.97;;;10.07;;
41755;SDS011;27435;48.480;9.258;2023-11-18T08:45:17;47.10;;;16.13;;
41755;SDS011;27435;48.480;9.258;2023-11-18T08:47:52;85.40;;;28.33;;
41755;SDS011;27435;48.480;9.258;2023-11-18T08:50:18;33.03;;;10.40;;
41755;SDS011;27435;48.480;9.258;2023-11-18T08:52:49;5.57;;;2.50;;
41755;SDS011;27435;48.480;9.258;2023-11-18T08:55:18;6.13;;;2.83;;
41755;SDS011;27435;48.480;9.258;2023-11-18T08:57:49;9.13;;;4.23;;
41755;SDS011;27435;48.480;9.258;2023-11-18T09:00:27;8.83;;;3.87;;
41755;SDS011;27435;48.480;9.258;2023-11-18T09:03:13;7.73;;;3.97;;
41755;SDS011;27435;48.480;9.258;2023-11-18T09:05:52;7.10;;;2.70;;
41755;SDS011;27435;48.480;9.258;2023-11-18T09:08:27;6.10;;;2.20;;
41755;SDS011;27435;48.480;9.258;2023-11-18T09:10:57;4.83;;;1.87;;
41755;SDS011;27435;48.480;9.258;2023-11-18T09:13:24;6.13;;;1.97;;
41755;SDS011;27435;48.480;9.258;2023-11-18T09:15:54;4.37;;;2.17;;
41755;SDS011;27435;48.480;9.258;2023-11-18T09:18:33;5.97;;;2.37;;
41755;SDS011;27435;48.480;9.258;2023-11-18T09:21:00;4.90;;;2.10;;
41755;SDS011;27435;48.480;9.258;2023-11-18T09:23:30;4.70;;;1.80;;
41755;SDS011;27435;48.480;9.258;2023-11-18T09:26:03;4.77;;;1.97;;
41755;SDS011;27435;48.480;9.258;2023-11-18T09:28:32;5.67;;;1.20;;
41755;SDS011;27435;48.480;9.258;2023-11-18T09:31:00;2.50;;;0.70;;
41755;SDS011;27435;48.480;9.258;2023-11-18T09:33:28;1.40;;;0.57;;
41755;SDS011;27435;48.480;9.258;2023-11-18T09:36:01;1.93;;;0.63;;
41755;SDS011;27435;48.480;9.258;2023-11-18T09:38:33;1.83;;;0.63;;
41755;SDS011;27435;48.480;9.258;2023-11-18T09:41:05;4.77;;;2.23;;
41755;SDS011;27435;48.480;9.258;2023-11-18T09:43:41;12.33;;;4.80;;
41755;SDS011;27435;48.480;9.258;2023-11-18T09:46:10;9.23;;;3.70;;
41755;SDS011;27435;48.480;9.258;2023-11-18T09:48:44;7.60;;;2.40;;
41755;SDS011;27435;48.480;9.258;2023-11-18T09:51:19;6.47;;;2.93;;
41755;SDS011;27435;48.480;9.258;2023-11-18T09:53:50;3.33;;;1.63;;
41755;SDS011;27435;48.480;9.258;2023-11-18T10:02:09;5.18;;;2.35;;
41755;SDS011;27435;48.480;9.258;2023-11-18T10:04:38;3.77;;;1.20;;
41755;SDS011;27435;48.480;9.258;2023-11-18T10:07:04;3.07;;;1.47;;
41755;SDS011;27435;48.480;9.258;2023-11-18T10:09:32;3.17;;;1.63;;
41755;SDS011;27435;48.480;9.258;2023-11-18T10:12:05;5.63;;;3.20;;
41755;SDS011;27435;48.480;9.258;2023-11-18T10:14:36;3.70;;;2.00;;
41755;SDS011;27435;48.480;9.258;2023-11-18T10:17:06;4.20;;;2.80;;
41755;SDS011;27435;48.480;9.258;2023-11-18T10:19:49;2.40;;;1.00;;
41755;SDS011;27435;48.480;9.258;2023-11-18T10:22:37;5.37;;;0.70;;
41755;SDS011;27435;48.480;9.258;2023-11-18T10:25:03;3.40;;;0.97;;
41755;SDS011;27435;48.480;9.258;2023-11-18T10:27:31;3.80;;;1.60;;
41755;SDS011;27435;48.480;9.258;2023-11-18T10:30:05;2.23;;;0.93;;
41755;SDS011;27435;48.480;9.258;2023-11-18T10:32:43;3.70;;;0.93;;
41755;SDS011;27435;48.480;9.258;2023-11-18T10:35:21;4.10;;;0.70;;
41755;SDS011;27435;48.480;9.258;2023-11-18T10:37:46;3.17;;;0.80;;
41755;SDS011;27435;48.480;9.258;2023-11-18T10:40:14;2.63;;;0.80;;
41755;SDS011;27435;48.480;9.258;2023-11-18T10:42:40;2.60;;;1.20;;
41755;SDS011;27435;48.480;9.258;2023-11-18T10:45:08;2.03;;;0.80;;
41755;SDS011;27435;48.480;9.258;2023-11-18T10:47:37;1.60;;;0.70;;
41755;SDS011;27435;48.480;9.258;2023-11-18T10:50:07;3.17;;;1.10;;
41755;SDS011;27435;48.480;9.258;2023-11-18T10:52:34;2.37;;;0.70;;
41755;SDS011;27435;48.480;9.258;2023-11-18T10:55:02;2.00;;;0.63;;
41755;SDS011;27435;48.480;9.258;2023-11-18T10:57:36;5.93;;;0.83;;
41755;SDS011;27435;48.480;9.258;2023-11-18T11:02:38;4.30;;;1.00;;
41755;SDS011;27435;48.480;9.258;2023-11-18T11:05:06;2.40;;;0.80;;
41755;SDS011;27435;48.480;9.258;2023-11-18T11:07:33;2.43;;;1.00;;
41755;SDS011;27435;48.480;9.258;2023-11-18T11:10:00;9.53;;;3.43;;
41755;SDS011;27435;48.480;9.258;2023-11-18T11:12:29;6.33;;;2.30;;
41755;SDS011;27435;48.480;9.258;2023-11-18T11:14:59;2.57;;;0.80;;
41755;SDS011;27435;48.480;9.258;2023-11-18T11:17:31;2.33;;;1.17;;
41755;SDS011;27435;48.480;9.258;2023-11-18T11:20:04;2.73;;;0.80;;
41755;SDS011;27435;48.480;9.258;2023-11-18T11:28:37;3.27;;;0.90;;
41755;SDS011;27435;48.480;9.258;2023-11-18T11:31:20;2.77;;;0.90;;
41755;SDS011;27435;48.480;9.258;2023-11-18T11:36:20;4.53;;;2.47;;
41755;SDS011;27435;48.480;9.258;2023-11-18T11:38:57;2.43;;;1.40;;
41755;SDS011;27435;48.480;9.258;2023-11-18T11:41:26;3.80;;;1.80;;
41755;SDS011;27435;48.480;9.258;2023-11-18T11:43:53;3.33;;;1.03;;
41755;SDS011;27435;48.480;9.258;2023-11-18T11:46:23;2.30;;;0.73;;
41755;SDS011;27435;48.480;9.258;2023-11-18T11:48:58;7.63;;;1.88;;
41755;SDS011;27435;48.480;9.258;2023-11-18T11:54:04;3.70;;;1.73;;
41755;SDS011;27435;48.480;9.258;2023-11-18T11:56:46;3.80;;;1.70;;
41755;SDS011;27435;48.480;9.258;2023-11-18T12:00:08;7.20;;;2.27;;
41755;SDS011;27435;48.480;9.258;2023-11-18T12:02:14;4.77;;;1.40;;
41755;SDS011;27435;48.480;9.258;2023-11-18T12:04:49;9.73;;;1.33;;
41755;SDS011;27435;48.480;9.258;2023-11-18T12:07:22;2.57;;;1.00;;
41755;SDS011;27435;48.480;9.258;2023-11-18T12:09:48;2.70;;;1.20;;
41755;SDS011;27435;48.480;9.258;2023-11-18T12:12:20;3.50;;;1.10;;
41755;SDS011;27435;48.480;9.258;2023-11-18T12:14:56;10.80;;;4.20;;
41755;SDS011;27435;48.480;9.258;2023-11-18T12:17:30;4.27;;;1.80;;
41755;SDS011;27435;48.480;9.258;2023-11-18T12:19:57;3.73;;;1.77;;
41755;SDS011;27435;48.480;9.258;2023-11-18T12:22:24;1.77;;;1.00;;
41755;SDS011;27435;48.480;9.258;2023-11-18T12:27:43;2.93;;;1.43;;
41755;SDS011;27435;48.480;9.258;2023-11-18T12:40:56;6.43;;;1.77;;
41755;SDS011;27435;48.480;9.258;2023-11-18T12:49:14;3.53;;;1.73;;
41755;SDS011;27435;48.480;9.258;2023-11-18T12:51:55;4.47;;;2.10;;
41755;SDS011;27435;48.480;9.258;2023-11-18T12:54:30;3.57;;;1.70;;
41755;SDS011;27435;48.480;9.258;2023-11-18T12:57:02;7.67;;;1.67;;
41755;SDS011;27435;48.480;9.258;2023-11-18T12:59:34;2.50;;;1.50;;
41755;SDS011;27435;48.480;9.258;2023-11-18T13:02:09;6.40;;;2.00;;
41755;SDS011;27435;48.480;9.258;2023-11-18T13:04:46;2.90;;;1.67;;
41755;SDS011;27435;48.480;9.258;2023-11-18T13:07:15;3.33;;;1.90;;
41755;SDS011;27435;48.480;9.258;2023-11-18T13:09:50;3.80;;;2.13;;
41755;SDS011;27435;48.480;9.258;2023-11-18T13:12:19;4.43;;;1.95;;
41755;SDS011;27435;48.480;9.258;2023-11-18T13:14:49;5.00;;;2.20;;
41755;SDS011;27435;48.480;9.258;2023-11-18T13:17:20;4.37;;;2.40;;
41755;SDS011;27435;48.480;9.258;2023-11-18T13:19:47;4.60;;;2.43;;
41755;SDS011;27435;48.480;9.258;2023-11-18T13:22:16;4.47;;;2.10;;
41755;SDS011;27435;48.480;9.258;2023-11-18T13:24:45;4.40;;;2.37;;
41755;SDS011;27435;48.480;9.258;2023-11-18T13:27:15;4.30;;;2.30;;
41755;SDS011;27435;48.480;9.258;2023-11-18T13:29:50;17.03;;;4.77;;
41755;SDS011;27435;48.480;9.258;2023-11-18T13:32:22;5.67;;;2.90;;
41755;SDS011;27435;48.480;9.258;2023-11-18T13:34:53;5.23;;;2.37;;
41755;SDS011;27435;48.480;9.258;2023-11-18T13:37:22;4.80;;;2.23;;
41755;SDS011;27435;48.480;9.258;2023-11-18T13:39:54;4.77;;;2.57;;
41755;SDS011;27435;48.480;9.258;2023-11-18T13:42:24;4.60;;;2.30;;
41755;SDS011;27435;48.480;9.258;2023-11-18T13:47:55;5.53;;;1.93;;
41755;SDS011;27435;48.480;9.258;2023-11-18T13:50:23;3.90;;;2.10;;
41755;SDS011;27435;48.480;9.258;2023-11-18T13:52:53;3.37;;;2.20;;
41755;SDS011;27435;48.480;9.258;2023-11-18T13:55:25;3.40;;;2.00;;
41755;SDS011;27435;48.480;9.258;2023-11-18T13:57:56;4.53;;;2.40;;
41755;SDS011;27435;48.480;9.258;2023-11-18T14:00:25;6.27;;;2.50;;
41755;SDS011;27435;48.480;9.258;2023-11-18T14:02:55;3.37;;;2.10;;
41755;SDS011;27435;48.480;9.258;2023-11-18T14:05:22;4.00;;;2.23;;
41755;SDS011;27435;48.480;9.258;2023-11-18T14:07:49;4.47;;;2.30;;
41755;SDS011;27435;48.480;9.258;2023-11-18T14:10:24;4.05;;;2.40;;
41755;SDS011;27435;48.480;9.258;2023-11-18T14:13:03;5.20;;;2.47;;
41755;SDS011;27435;48.480;9.258;2023-11-18T14:15:36;4.50;;;2.47;;
41755;SDS011;27435;48.480;9.258;2023-11-18T14:18:03;6.30;;;2.50;;
41755;SDS011;27435;48.480;9.258;2023-11-18T14:20:29;4.23;;;2.40;;
41755;SDS011;27435;48.480;9.258;2023-11-18T14:22:56;4.80;;;2.07;;
41755;SDS011;27435;48.480;9.258;2023-11-18T14:25:23;2.87;;;1.60;;
41755;SDS011;27435;48.480;9.258;2023-11-18T14:27:49;4.97;;;2.50;;
41755;SDS011;27435;48.480;9.258;2023-11-18T14:30:16;3.93;;;2.37;;
41755;SDS011;27435;48.480;9.258;2023-11-18T14:32:42;10.83;;;4.70;;
41755;SDS011;27435;48.480;9.258;2023-11-18T14:35:08;11.70;;;3.43;;
41755;SDS011;27435;48.480;9.258;2023-11-18T14:37:38;6.57;;;3.40;;
41755;SDS011;27435;48.480;9.258;2023-11-18T14:40:07;6.73;;;2.93;;
41755;SDS011;27435;48.480;9.258;2023-11-18T14:42:43;8.30;;;3.37;;
41755;SDS011;27435;48.480;9.258;2023-11-18T14:45:12;4.47;;;2.50;;
41755;SDS011;27435;48.480;9.258;2023-11-18T14:47:39;4.17;;;2.70;;
41755;SDS011;27435;48.480;9.258;2023-11-18T14:50:05;3.40;;;1.83;;
41755;SDS011;27435;48.480;9.258;2023-11-18T14:52:40;3.88;;;2.60;;
41755;SDS011;27435;48.480;9.258;2023-11-18T14:55:06;7.33;;;2.70;;
41755;SDS011;27435;48.480;9.258;2023-11-18T14:57:37;5.00;;;2.90;;
41755;SDS011;27435;48.480;9.258;2023-11-18T15:00:07;5.43;;;2.73;;
41755;SDS011;27435;48.480;9.258;2023-11-18T15:02:33;5.27;;;2.73;;
41755;SDS011;27435;48.480;9.258;2023-11-18T15:05:02;5.97;;;2.83;;
41755;SDS011;27435;48.480;9.258;2023-11-18T15:07:31;4.73;;;2.50;;
41755;SDS011;27435;48.480;9.258;2023-11-18T15:09:57;5.27;;;2.77;;
41755;SDS011;27435;48.480;9.258;2023-11-18T15:12:22;6.20;;;2.30;;
41755;SDS011;27435;48.480;9.258;2023-11-18T15:14:48;4.87;;;1.90;;
41755;SDS011;27435;48.480;9.258;2023-11-18T15:17:14;7.73;;;1.83;;
41755;SDS011;27435;48.480;9.258;2023-11-18T15:19:39;4.47;;;1.60;;
41755;SDS011;27435;48.480;9.258;2023-11-18T15:22:05;5.87;;;1.73;;
41755;SDS011;27435;48.480;9.258;2023-11-18T15:24:31;2.80;;;1.33;;
41755;SDS011;27435;48.480;9.258;2023-11-18T15:26:57;3.23;;;1.40;;
41755;SDS011;27435;48.480;9.258;2023-11-18T15:29:25;6.10;;;1.20;;
41755;SDS011;27435;48.480;9.258;2023-11-18T15:31:58;4.67;;;1.47;;
41755;SDS011;27435;48.480;9.258;2023-11-18T15:34:24;4.47;;;0.97;;
41755;SDS011;27435;48.480;9.258;2023-11-18T15:36:50;3.80;;;1.10;;
41755;SDS011;27435;48.480;9.258;2023-11-18T15:39:17;2.30;;;0.93;;
41755;SDS011;27435;48.480;9.258;2023-11-18T15:41:43;6.40;;;1.20;;
41755;SDS011;27435;48.480;9.258;2023-11-18T15:44:09;4.90;;;1.17;;